sensor_id;sensor_type;location;lat;lon;timestamp;P1;durP1;ratioP1;P2;durP2;ratioP2
7605;SDS011;3844;53.360;9.738;2022-12-18T00:01:47;34.78;;;13.30;;
7605;SDS011;3844;53.360;9.738;2022-12-18T00:03:48;37.25;;;13.20;;
7605;SDS011;3844;53.360;9.738;2022-12-18T00:05:50;34.85;;;13.85;;
7605;SDS011;3844;53.360;9.738;2022-12-18T00:07:52;35.72;;;12.70;;
7605;SDS011;3844;53.360;9.738;2022-12-18T00:09:52;29.95;;;12.18;;
7605;SDS011;3844;53.360;9.738;2022-12-18T00:11:53;34.67;;;12.98;;
7605;SDS011;3844;53.360;9.738;2022-12-18T00:13:55;34.53;;;12.75;;
7605;SDS011;3844;53.360;9.738;2022-12-18T00:16:01;31.05;;;12.48;;
7605;SDS011;3844;53.360;9.738;2022-12-18T00:18:06;27.92;;;11.88;;
7605;SDS011;3844;53.360;9.738;2022-12-18T00:20:07;29.42;;;11.45;;
7605;SDS011;3844;53.360;9.738;2022-12-18T00:22:08;29.98;;;13.10;;
7605;SDS011;3844;53.360;9.738;2022-12-18T00:24:09;30.58;;;12.63;;
7605;SDS011;3844;53.360;9.738;2022-12-18T00:26:18;33.78;;;12.70;;
7605;SDS011;3844;53.360;9.738;2022-12-18T00:28:20;37.63;;;12.98;;
7605;SDS011;3844;53.360;9.738;2022-12-18T00:30:21;32.45;;;12.57;;
7605;SDS011;3844;53.360;9.738;2022-12-18T00:32:22;31.83;;;12.73;;
7605;SDS011;3844;53.360;9.738;2022-12-18T00:34:22;28.83;;;12.13;;
7605;SDS011;3844;53.360;9.738;2022-12-18T00:36:27;31.67;;;12.45;;
7605;SDS011;3844;53.360;9.738;2022-12-18T00:38:30;31.13;;;12.30;;
7605;SDS011;3844;53.360;9.738;2022-12-18T00:40:31;34.42;;;12.63;;
7605;SDS011;3844;53.360;9.738;2022-12-18T00:42:32;31.63;;;12.90;;
7605;SDS011;3844;53.360;9.738;2022-12-18T00:44:55;31.10;;;11.93;;
7605;SDS011;3844;53.360;9.738;2022-12-18T00:46:56;32.25;;;11.80;;
7605;SDS011;3844;53.360;9.738;2022-12-18T00:48:56;33.47;;;12.50;;
7605;SDS011;3844;53.360;9.738;2022-12-18T00:50:58;28.73;;;11.82;;
7605;SDS011;3844;53.360;9.738;2022-12-18T00:52:58;33.40;;;12.60;;
7605;SDS011;3844;53.360;9.738;2022-12-18T00:54:59;36.05;;;13.00;;
7605;SDS011;3844;53.360;9.738;2022-12-18T00:57:00;33.38;;;12.75;;
7605;SDS011;3844;53.360;9.738;2022-12-18T00:59:01;31.88;;;12.40;;
7605;SDS011;3844;53.360;9.738;2022-12-18T01:01:03;33.10;;;12.80;;
7605;SDS011;3844;53.360;9.738;2022-12-18T01:03:05;30.00;;;11.95;;
7605;SDS011;3844;53.360;9.738;2022-12-18T01:05:06;29.05;;;12.38;;
7605;SDS011;3844;53.360;9.738;2022-12-18T01:07:07;33.33;;;12.65;;
7605;SDS011;3844;53.360;9.738;2022-12-18T01:09:08;30.77;;;12.25;;
7605;SDS011;3844;53.360;9.738;2022-12-18T01:11:10;32.88;;;11.75;;
7605;SDS011;3844;53.360;9.738;2022-12-18T01:13:12;31.48;;;11.93;;
7605;SDS011;3844;53.360;9.738;2022-12-18T01:15:14;32.60;;;11.93;;
7605;SDS011;3844;53.360;9.738;2022-12-18T01:17:15;26.80;;;11.90;;
7605;SDS011;3844;53.360;9.738;2022-12-18T01:19:16;32.47;;;12.60;;
7605;SDS011;3844;53.360;9.738;2022-12-18T01:21:17;34.80;;;12.77;;
7605;SDS011;3844;53.360;9.738;2022-12-18T01:23:17;30.42;;;12.98;;
7605;SDS011;3844;53.360;9.738;2022-12-18T01:25:18;33.42;;;12.57;;
7605;SDS011;3844;53.360;9.738;2022-12-18T01:27:19;32.35;;;12.43;;
7605;SDS011;3844;53.360;9.738;2022-12-18T01:29:20;31.02;;;12.65;;
7605;SDS011;3844;53.360;9.738;2022-12-18T01:31:25;30.50;;;12.45;;
7605;SDS011;3844;53.360;9.738;2022-12-18T01:33:28;31.70;;;12.07;;
7605;SDS011;3844;53.360;9.738;2022-12-18T01:35:28;25.55;;;11.38;;
7605;SDS011;3844;53.360;9.738;2022-12-18T01:37:29;30.17;;;11.88;;
7605;SDS011;3844;53.360;9.738;2022-12-18T01:39:30;32.33;;;12.15;;
7605;SDS011;3844;53.360;9.738;2022-12-18T01:41:34;29.60;;;11.68;;
7605;SDS011;3844;53.360;9.738;2022-12-18T01:43:54;28.42;;;11.32;;
7605;SDS011;3844;53.360;9.738;2022-12-18T01:45:59;26.48;;;10.93;;
7605;SDS011;3844;53.360;9.738;2022-12-18T01:48:00;33.67;;;12.35;;
7605;SDS011;3844;53.360;9.738;2022-12-18T01:52:15;32.13;;;12.40;;
7605;SDS011;3844;53.360;9.738;2022-12-18T01:54:17;27.25;;;11.40;;
7605;SDS011;3844;53.360;9.738;2022-12-18T01:56:18;33.42;;;11.23;;
7605;SDS011;3844;53.360;9.738;2022-12-18T01:58:23;30.23;;;11.82;;
7605;SDS011;3844;53.360;9.738;2022-12-18T02:00:35;33.50;;;12.50;;
7605;SDS011;3844;53.360;9.738;2022-12-18T02:02:36;28.13;;;10.90;;
7605;SDS011;3844;53.360;9.738;2022-12-18T02:04:40;31.25;;;11.98;;
7605;SDS011;3844;53.360;9.738;2022-12-18T02:06:41;30.60;;;11.95;;
7605;SDS011;3844;53.360;9.738;2022-12-18T02:11:07;27.30;;;11.55;;
7605;SDS011;3844;53.360;9.738;2022-12-18T02:15:29;30.15;;;12.02;;
7605;SDS011;3844;53.360;9.738;2022-12-18T02:17:50;27.48;;;11.30;;
7605;SDS011;3844;53.360;9.738;2022-12-18T02:22:36;30.73;;;11.65;;
7605;SDS011;3844;53.360;9.738;2022-12-18T02:24:53;26.92;;;10.93;;
7605;SDS011;3844;53.360;9.738;2022-12-18T02:27:02;30.83;;;11.30;;
7605;SDS011;3844;53.360;9.738;2022-12-18T02:29:10;31.15;;;10.90;;
7605;SDS011;3844;53.360;9.738;2022-12-18T02:31:16;29.15;;;10.68;;
7605;SDS011;3844;53.360;9.738;2022-12-18T02:33:24;24.33;;;10.13;;
7605;SDS011;3844;53.360;9.738;2022-12-18T02:35:27;27.05;;;10.88;;
7605;SDS011;3844;53.360;9.738;2022-12-18T02:37:30;29.25;;;10.50;;
7605;SDS011;3844;53.360;9.738;2022-12-18T02:39:32;29.60;;;10.43;;
7605;SDS011;3844;53.360;9.738;2022-12-18T02:41:34;27.50;;;10.27;;
7605;SDS011;3844;53.360;9.738;2022-12-18T02:43:36;27.80;;;10.65;;
7605;SDS011;3844;53.360;9.738;2022-12-18T02:45:47;24.65;;;10.50;;
7605;SDS011;3844;53.360;9.738;2022-12-18T02:47:59;29.73;;;10.98;;
7605;SDS011;3844;53.360;9.738;2022-12-18T02:50:18;26.92;;;10.77;;
7605;SDS011;3844;53.360;9.738;2022-12-18T02:56:42;24.25;;;9.80;;
7605;SDS011;3844;53.360;9.738;2022-12-18T02:58:53;24.55;;;9.55;;
7605;SDS011;3844;53.360;9.738;2022-12-18T03:01:09;25.60;;;10.07;;
7605;SDS011;3844;53.360;9.738;2022-12-18T03:03:25;23.23;;;10.13;;
7605;SDS011;3844;53.360;9.738;2022-12-18T03:05:45;25.73;;;9.18;;
7605;SDS011;3844;53.360;9.738;2022-12-18T03:07:56;26.75;;;9.90;;
7605;SDS011;3844;53.360;9.738;2022-12-18T03:10:02;25.10;;;10.23;;
7605;SDS011;3844;53.360;9.738;2022-12-18T03:14:24;23.15;;;9.40;;
7605;SDS011;3844;53.360;9.738;2022-12-18T03:16:27;23.35;;;9.70;;
7605;SDS011;3844;53.360;9.738;2022-12-18T03:18:30;26.60;;;9.90;;
7605;SDS011;3844;53.360;9.738;2022-12-18T03:20:42;23.63;;;10.02;;
7605;SDS011;3844;53.360;9.738;2022-12-18T03:22:46;24.27;;;9.90;;
7605;SDS011;3844;53.360;9.738;2022-12-18T03:24:54;21.27;;;9.35;;
7605;SDS011;3844;53.360;9.738;2022-12-18T03:27:00;23.20;;;8.85;;
7605;SDS011;3844;53.360;9.738;2022-12-18T03:29:04;29.05;;;9.43;;
7605;SDS011;3844;53.360;9.738;2022-12-18T03:31:10;24.05;;;9.68;;
7605;SDS011;3844;53.360;9.738;2022-12-18T03:33:18;22.60;;;9.30;;
7605;SDS011;3844;53.360;9.738;2022-12-18T03:35:26;25.17;;;10.10;;
7605;SDS011;3844;53.360;9.738;2022-12-18T03:37:31;25.05;;;9.43;;
7605;SDS011;3844;53.360;9.738;2022-12-18T03:39:32;24.27;;;9.98;;
7605;SDS011;3844;53.360;9.738;2022-12-18T03:41:38;21.40;;;8.75;;
7605;SDS011;3844;53.360;9.738;2022-12-18T03:45:54;26.23;;;9.48;;
7605;SDS011;3844;53.360;9.738;2022-12-18T03:50:19;25.23;;;9.93;;
7605;SDS011;3844;53.360;9.738;2022-12-18T03:52:28;26.38;;;8.93;;
7605;SDS011;3844;53.360;9.738;2022-12-18T03:54:35;25.17;;;10.05;;
7605;SDS011;3844;53.360;9.738;2022-12-18T03:56:38;23.67;;;9.63;;
7605;SDS011;3844;53.360;9.738;2022-12-18T03:58:43;24.58;;;8.80;;
7605;SDS011;3844;53.360;9.738;2022-12-18T04:00:47;29.45;;;9.95;;
7605;SDS011;3844;53.360;9.738;2022-12-18T04:02:51;24.17;;;9.38;;
7605;SDS011;3844;53.360;9.738;2022-12-18T04:04:55;22.15;;;9.20;;
7605;SDS011;3844;53.360;9.738;2022-12-18T04:06:59;24.20;;;9.23;;
7605;SDS011;3844;53.360;9.738;2022-12-18T04:09:00;24.20;;;9.35;;
7605;SDS011;3844;53.360;9.738;2022-12-18T04:11:01;24.08;;;9.10;;
7605;SDS011;3844;53.360;9.738;2022-12-18T04:13:02;24.25;;;9.00;;
7605;SDS011;3844;53.360;9.738;2022-12-18T04:15:04;27.73;;;10.10;;
7605;SDS011;3844;53.360;9.738;2022-12-18T04:17:05;21.52;;;9.02;;
7605;SDS011;3844;53.360;9.738;2022-12-18T04:19:06;20.92;;;9.10;;
7605;SDS011;3844;53.360;9.738;2022-12-18T04:21:07;22.48;;;9.05;;
7605;SDS011;3844;53.360;9.738;2022-12-18T04:23:08;23.50;;;8.90;;
7605;SDS011;3844;53.360;9.738;2022-12-18T04:25:12;21.48;;;8.95;;
7605;SDS011;3844;53.360;9.738;2022-12-18T04:27:13;23.60;;;9.65;;
7605;SDS011;3844;53.360;9.738;2022-12-18T04:29:14;23.67;;;9.20;;
7605;SDS011;3844;53.360;9.738;2022-12-18T04:31:14;22.08;;;9.25;;
7605;SDS011;3844;53.360;9.738;2022-12-18T04:33:18;21.52;;;8.93;;
7605;SDS011;3844;53.360;9.738;2022-12-18T04:35:20;27.67;;;9.40;;
7605;SDS011;3844;53.360;9.738;2022-12-18T04:37:20;25.00;;;8.73;;
7605;SDS011;3844;53.360;9.738;2022-12-18T04:39:21;22.35;;;8.65;;
7605;SDS011;3844;53.360;9.738;2022-12-18T04:41:22;23.52;;;9.00;;
7605;SDS011;3844;53.360;9.738;2022-12-18T04:43:23;23.05;;;8.52;;
7605;SDS011;3844;53.360;9.738;2022-12-18T04:45:23;24.90;;;9.40;;
7605;SDS011;3844;53.360;9.738;2022-12-18T04:47:24;22.35;;;8.65;;
7605;SDS011;3844;53.360;9.738;2022-12-18T04:49:25;24.27;;;8.65;;
7605;SDS011;3844;53.360;9.738;2022-12-18T04:51:26;22.27;;;8.68;;
7605;SDS011;3844;53.360;9.738;2022-12-18T04:53:26;22.17;;;8.80;;
7605;SDS011;3844;53.360;9.738;2022-12-18T04:55:27;24.58;;;8.82;;
7605;SDS011;3844;53.360;9.738;2022-12-18T04:57:28;23.25;;;8.77;;
7605;SDS011;3844;53.360;9.738;2022-12-18T04:59:29;24.23;;;8.93;;
7605;SDS011;3844;53.360;9.738;2022-12-18T05:01:30;20.02;;;8.68;;
7605;SDS011;3844;53.360;9.738;2022-12-18T05:03:34;26.05;;;8.90;;
7605;SDS011;3844;53.360;9.738;2022-12-18T05:05:35;24.15;;;9.18;;
7605;SDS011;3844;53.360;9.738;2022-12-18T05:07:36;24.23;;;9.38;;
7605;SDS011;3844;53.360;9.738;2022-12-18T05:09:37;22.23;;;9.25;;
7605;SDS011;3844;53.360;9.738;2022-12-18T05:11:38;23.38;;;9.10;;
7605;SDS011;3844;53.360;9.738;2022-12-18T05:13:38;23.17;;;8.80;;
7605;SDS011;3844;53.360;9.738;2022-12-18T05:15:39;21.02;;;9.35;;
7605;SDS011;3844;53.360;9.738;2022-12-18T05:17:41;24.42;;;8.48;;
7605;SDS011;3844;53.360;9.738;2022-12-18T05:19:42;20.35;;;8.55;;
7605;SDS011;3844;53.360;9.738;2022-12-18T05:21:43;20.90;;;7.93;;
7605;SDS011;3844;53.360;9.738;2022-12-18T05:23:44;21.67;;;9.18;;
7605;SDS011;3844;53.360;9.738;2022-12-18T05:25:56;22.25;;;8.07;;
7605;SDS011;3844;53.360;9.738;2022-12-18T05:27:59;21.23;;;7.80;;
7605;SDS011;3844;53.360;9.738;2022-12-18T05:29:59;22.08;;;8.23;;
7605;SDS011;3844;53.360;9.738;2022-12-18T05:32:00;19.25;;;8.02;;
7605;SDS011;3844;53.360;9.738;2022-12-18T05:34:01;23.15;;;8.85;;
7605;SDS011;3844;53.360;9.738;2022-12-18T05:36:02;21.33;;;8.10;;
7605;SDS011;3844;53.360;9.738;2022-12-18T05:38:05;23.63;;;8.05;;
7605;SDS011;3844;53.360;9.738;2022-12-18T05:40:06;19.35;;;8.02;;
7605;SDS011;3844;53.360;9.738;2022-12-18T05:42:07;17.45;;;7.53;;
7605;SDS011;3844;53.360;9.738;2022-12-18T05:44:08;24.17;;;8.50;;
7605;SDS011;3844;53.360;9.738;2022-12-18T05:46:12;21.27;;;7.95;;
7605;SDS011;3844;53.360;9.738;2022-12-18T05:48:15;19.33;;;7.93;;
7605;SDS011;3844;53.360;9.738;2022-12-18T05:50:16;21.02;;;7.50;;
7605;SDS011;3844;53.360;9.738;2022-12-18T05:52:17;20.50;;;8.23;;
7605;SDS011;3844;53.360;9.738;2022-12-18T05:54:18;19.98;;;7.88;;
7605;SDS011;3844;53.360;9.738;2022-12-18T05:56:19;20.33;;;8.57;;
7605;SDS011;3844;53.360;9.738;2022-12-18T05:58:22;20.67;;;7.97;;
7605;SDS011;3844;53.360;9.738;2022-12-18T06:00:22;21.10;;;8.52;;
7605;SDS011;3844;53.360;9.738;2022-12-18T06:02:23;20.38;;;7.97;;
7605;SDS011;3844;53.360;9.738;2022-12-18T06:04:24;20.50;;;8.18;;
7605;SDS011;3844;53.360;9.738;2022-12-18T06:06:28;21.20;;;8.27;;
7605;SDS011;3844;53.360;9.738;2022-12-18T06:08:29;19.52;;;7.85;;
7605;SDS011;3844;53.360;9.738;2022-12-18T06:10:30;20.73;;;7.78;;
7605;SDS011;3844;53.360;9.738;2022-12-18T06:12:31;19.92;;;7.80;;
7605;SDS011;3844;53.360;9.738;2022-12-18T06:14:33;18.50;;;6.95;;
7605;SDS011;3844;53.360;9.738;2022-12-18T06:16:34;21.88;;;8.00;;
7605;SDS011;3844;53.360;9.738;2022-12-18T06:18:38;21.00;;;7.68;;
7605;SDS011;3844;53.360;9.738;2022-12-18T06:20:39;19.95;;;8.07;;
7605;SDS011;3844;53.360;9.738;2022-12-18T06:22:41;22.10;;;8.23;;
7605;SDS011;3844;53.360;9.738;2022-12-18T06:24:42;21.92;;;8.23;;
7605;SDS011;3844;53.360;9.738;2022-12-18T06:26:42;19.73;;;7.45;;
7605;SDS011;3844;53.360;9.738;2022-12-18T06:28:43;18.58;;;7.43;;
7605;SDS011;3844;53.360;9.738;2022-12-18T06:30:45;21.83;;;8.15;;
7605;SDS011;3844;53.360;9.738;2022-12-18T06:32:47;26.45;;;8.48;;
7605;SDS011;3844;53.360;9.738;2022-12-18T06:34:48;21.08;;;8.32;;
7605;SDS011;3844;53.360;9.738;2022-12-18T06:36:49;21.83;;;7.93;;
7605;SDS011;3844;53.360;9.738;2022-12-18T06:38:50;19.67;;;8.10;;
7605;SDS011;3844;53.360;9.738;2022-12-18T06:40:51;22.50;;;8.13;;
7605;SDS011;3844;53.360;9.738;2022-12-18T06:42:54;23.40;;;8.50;;
7605;SDS011;3844;53.360;9.738;2022-12-18T06:44:55;25.08;;;7.88;;
7605;SDS011;3844;53.360;9.738;2022-12-18T06:46:56;22.33;;;8.07;;
7605;SDS011;3844;53.360;9.738;2022-12-18T06:48:57;22.70;;;7.70;;
7605;SDS011;3844;53.360;9.738;2022-12-18T06:50:58;24.02;;;8.55;;
7605;SDS011;3844;53.360;9.738;2022-12-18T06:52:59;20.15;;;8.23;;
7605;SDS011;3844;53.360;9.738;2022-12-18T06:55:00;22.02;;;8.13;;
7605;SDS011;3844;53.360;9.738;2022-12-18T06:57:01;19.90;;;8.10;;
7605;SDS011;3844;53.360;9.738;2022-12-18T06:59:01;19.02;;;7.80;;
7605;SDS011;3844;53.360;9.738;2022-12-18T07:01:03;24.05;;;8.10;;
7605;SDS011;3844;53.360;9.738;2022-12-18T07:03:04;20.42;;;7.95;;
7605;SDS011;3844;53.360;9.738;2022-12-18T07:05:05;24.85;;;8.35;;
7605;SDS011;3844;53.360;9.738;2022-12-18T07:07:07;20.80;;;7.90;;
7605;SDS011;3844;53.360;9.738;2022-12-18T07:09:07;22.98;;;8.07;;
7605;SDS011;3844;53.360;9.738;2022-12-18T07:11:08;20.73;;;8.30;;
7605;SDS011;3844;53.360;9.738;2022-12-18T07:13:09;23.55;;;8.32;;
7605;SDS011;3844;53.360;9.738;2022-12-18T07:15:10;22.38;;;8.07;;
7605;SDS011;3844;53.360;9.738;2022-12-18T07:17:11;19.58;;;7.97;;
7605;SDS011;3844;53.360;9.738;2022-12-18T07:19:12;19.85;;;7.68;;
7605;SDS011;3844;53.360;9.738;2022-12-18T07:21:14;23.35;;;8.13;;
7605;SDS011;3844;53.360;9.738;2022-12-18T07:23:17;27.83;;;9.27;;
7605;SDS011;3844;53.360;9.738;2022-12-18T07:25:18;19.80;;;8.27;;
7605;SDS011;3844;53.360;9.738;2022-12-18T07:27:18;24.13;;;8.13;;
7605;SDS011;3844;53.360;9.738;2022-12-18T07:29:19;20.15;;;8.18;;
7605;SDS011;3844;53.360;9.738;2022-12-18T07:31:21;22.35;;;8.57;;
7605;SDS011;3844;53.360;9.738;2022-12-18T07:33:22;23.67;;;8.38;;
7605;SDS011;3844;53.360;9.738;2022-12-18T07:35:22;23.80;;;8.52;;
7605;SDS011;3844;53.360;9.738;2022-12-18T07:37:23;24.65;;;9.23;;
7605;SDS011;3844;53.360;9.738;2022-12-18T07:39:24;23.15;;;8.82;;
7605;SDS011;3844;53.360;9.738;2022-12-18T07:41:25;22.05;;;8.88;;
7605;SDS011;3844;53.360;9.738;2022-12-18T07:43:25;25.63;;;9.35;;
7605;SDS011;3844;53.360;9.738;2022-12-18T07:45:26;23.75;;;9.00;;
7605;SDS011;3844;53.360;9.738;2022-12-18T07:47:27;21.13;;;8.57;;
7605;SDS011;3844;53.360;9.738;2022-12-18T07:49:28;21.80;;;8.77;;
7605;SDS011;3844;53.360;9.738;2022-12-18T07:51:29;20.75;;;8.68;;
7605;SDS011;3844;53.360;9.738;2022-12-18T07:53:30;24.73;;;9.35;;
7605;SDS011;3844;53.360;9.738;2022-12-18T07:55:32;24.77;;;9.18;;
7605;SDS011;3844;53.360;9.738;2022-12-18T07:57:33;26.88;;;9.60;;
7605;SDS011;3844;53.360;9.738;2022-12-18T07:59:34;22.85;;;9.40;;
7605;SDS011;3844;53.360;9.738;2022-12-18T08:01:34;28.77;;;10.02;;
7605;SDS011;3844;53.360;9.738;2022-12-18T08:03:35;26.50;;;10.07;;
7605;SDS011;3844;53.360;9.738;2022-12-18T08:05:36;26.83;;;10.38;;
7605;SDS011;3844;53.360;9.738;2022-12-18T08:07:38;25.05;;;9.60;;
7605;SDS011;3844;53.360;9.738;2022-12-18T08:09:39;29.10;;;10.55;;
7605;SDS011;3844;53.360;9.738;2022-12-18T08:11:40;28.48;;;10.85;;
7605;SDS011;3844;53.360;9.738;2022-12-18T08:13:41;27.00;;;9.75;;
7605;SDS011;3844;53.360;9.738;2022-12-18T08:15:41;30.10;;;11.38;;
7605;SDS011;3844;53.360;9.738;2022-12-18T08:17:42;28.30;;;10.57;;
7605;SDS011;3844;53.360;9.738;2022-12-18T08:19:43;26.52;;;11.00;;
7605;SDS011;3844;53.360;9.738;2022-12-18T08:21:44;29.88;;;11.10;;
7605;SDS011;3844;53.360;9.738;2022-12-18T08:23:44;25.77;;;10.88;;
7605;SDS011;3844;53.360;9.738;2022-12-18T08:25:45;27.25;;;10.45;;
7605;SDS011;3844;53.360;9.738;2022-12-18T08:27:46;25.60;;;9.95;;
7605;SDS011;3844;53.360;9.738;2022-12-18T08:29:47;25.23;;;10.77;;
7605;SDS011;3844;53.360;9.738;2022-12-18T08:31:48;25.88;;;10.13;;
7605;SDS011;3844;53.360;9.738;2022-12-18T08:33:49;22.20;;;10.10;;
7605;SDS011;3844;53.360;9.738;2022-12-18T08:35:50;23.00;;;9.48;;
7605;SDS011;3844;53.360;9.738;2022-12-18T08:37:52;24.27;;;9.02;;
7605;SDS011;3844;53.360;9.738;2022-12-18T08:39:53;23.40;;;9.60;;
7605;SDS011;3844;53.360;9.738;2022-12-18T08:41:54;24.45;;;9.32;;
7605;SDS011;3844;53.360;9.738;2022-12-18T08:44:13;24.25;;;9.63;;
7605;SDS011;3844;53.360;9.738;2022-12-18T08:46:37;25.52;;;10.15;;
7605;SDS011;3844;53.360;9.738;2022-12-18T08:48:39;24.65;;;9.60;;
7605;SDS011;3844;53.360;9.738;2022-12-18T08:50:40;28.73;;;9.75;;
7605;SDS011;3844;53.360;9.738;2022-12-18T08:52:40;22.50;;;9.50;;
7605;SDS011;3844;53.360;9.738;2022-12-18T08:54:41;25.17;;;9.00;;
7605;SDS011;3844;53.360;9.738;2022-12-18T08:56:42;23.70;;;9.70;;
7605;SDS011;3844;53.360;9.738;2022-12-18T08:58:43;27.55;;;9.55;;
7605;SDS011;3844;53.360;9.738;2022-12-18T09:00:47;25.10;;;9.45;;
7605;SDS011;3844;53.360;9.738;2022-12-18T09:02:48;23.13;;;9.45;;
7605;SDS011;3844;53.360;9.738;2022-12-18T09:04:49;22.52;;;9.68;;
7605;SDS011;3844;53.360;9.738;2022-12-18T09:06:50;21.77;;;9.50;;
7605;SDS011;3844;53.360;9.738;2022-12-18T09:08:51;24.33;;;10.25;;
7605;SDS011;3844;53.360;9.738;2022-12-18T09:10:52;25.70;;;9.45;;
7605;SDS011;3844;53.360;9.738;2022-12-18T09:12:52;24.02;;;9.40;;
7605;SDS011;3844;53.360;9.738;2022-12-18T09:14:53;25.85;;;9.48;;
7605;SDS011;3844;53.360;9.738;2022-12-18T09:16:54;27.27;;;10.20;;
7605;SDS011;3844;53.360;9.738;2022-12-18T09:18:55;26.23;;;9.75;;
7605;SDS011;3844;53.360;9.738;2022-12-18T09:20:59;24.45;;;9.35;;
7605;SDS011;3844;53.360;9.738;2022-12-18T09:23:00;24.00;;;9.75;;
7605;SDS011;3844;53.360;9.738;2022-12-18T09:25:01;24.15;;;9.35;;
7605;SDS011;3844;53.360;9.738;2022-12-18T09:27:02;24.05;;;8.95;;
7605;SDS011;3844;53.360;9.738;2022-12-18T09:29:03;22.85;;;9.00;;
7605;SDS011;3844;53.360;9.738;2022-12-18T09:31:07;22.38;;;9.95;;
7605;SDS011;3844;53.360;9.738;2022-12-18T09:33:08;22.20;;;10.07;;
7605;SDS011;3844;53.360;9.738;2022-12-18T09:35:09;22.30;;;9.10;;
7605;SDS011;3844;53.360;9.738;2022-12-18T09:37:10;24.25;;;9.13;;
7605;SDS011;3844;53.360;9.738;2022-12-18T09:39:11;22.25;;;8.60;;
7605;SDS011;3844;53.360;9.738;2022-12-18T09:41:22;18.70;;;8.85;;
7605;SDS011;3844;53.360;9.738;2022-12-18T09:43:49;21.65;;;9.07;;
7605;SDS011;3844;53.360;9.738;2022-12-18T09:45:55;19.08;;;8.50;;
7605;SDS011;3844;53.360;9.738;2022-12-18T09:48:01;21.63;;;8.70;;
7605;SDS011;3844;53.360;9.738;2022-12-18T09:50:04;20.33;;;8.07;;
7605;SDS011;3844;53.360;9.738;2022-12-18T09:54:58;18.92;;;8.13;;
7605;SDS011;3844;53.360;9.738;2022-12-18T09:57:14;21.00;;;7.85;;
7605;SDS011;3844;53.360;9.738;2022-12-18T09:59:23;20.65;;;8.15;;
7605;SDS011;3844;53.360;9.738;2022-12-18T10:01:27;18.02;;;8.43;;
7605;SDS011;3844;53.360;9.738;2022-12-18T10:03:29;19.55;;;8.13;;
7605;SDS011;3844;53.360;9.738;2022-12-18T10:08:09;18.25;;;8.10;;
7605;SDS011;3844;53.360;9.738;2022-12-18T10:10:38;17.83;;;7.40;;
7605;SDS011;3844;53.360;9.738;2022-12-18T10:12:50;18.70;;;7.70;;
7605;SDS011;3844;53.360;9.738;2022-12-18T10:19:24;19.48;;;7.75;;
7605;SDS011;3844;53.360;9.738;2022-12-18T10:23:56;16.92;;;7.30;;
7605;SDS011;3844;53.360;9.738;2022-12-18T10:26:06;18.02;;;7.50;;
7605;SDS011;3844;53.360;9.738;2022-12-18T10:28:12;18.35;;;7.78;;
7605;SDS011;3844;53.360;9.738;2022-12-18T10:32:17;15.85;;;7.28;;
7605;SDS011;3844;53.360;9.738;2022-12-18T10:34:36;17.73;;;7.63;;
7605;SDS011;3844;53.360;9.738;2022-12-18T10:36:36;16.90;;;7.50;;
7605;SDS011;3844;53.360;9.738;2022-12-18T10:38:37;19.23;;;7.30;;
7605;SDS011;3844;53.360;9.738;2022-12-18T10:43:13;16.27;;;7.43;;
7605;SDS011;3844;53.360;9.738;2022-12-18T10:45:15;18.45;;;7.38;;
7605;SDS011;3844;53.360;9.738;2022-12-18T10:47:17;15.73;;;7.25;;
7605;SDS011;3844;53.360;9.738;2022-12-18T10:49:23;17.52;;;7.25;;
7605;SDS011;3844;53.360;9.738;2022-12-18T10:51:36;18.10;;;7.30;;
7605;SDS011;3844;53.360;9.738;2022-12-18T10:53:38;16.25;;;6.88;;
7605;SDS011;3844;53.360;9.738;2022-12-18T10:55:44;14.40;;;6.13;;
7605;SDS011;3844;53.360;9.738;2022-12-18T10:57:46;17.33;;;7.05;;
7605;SDS011;3844;53.360;9.738;2022-12-18T10:59:51;15.93;;;7.15;;
7605;SDS011;3844;53.360;9.738;2022-12-18T11:01:55;15.32;;;6.78;;
7605;SDS011;3844;53.360;9.738;2022-12-18T11:06:03;16.73;;;6.78;;
7605;SDS011;3844;53.360;9.738;2022-12-18T11:08:12;17.10;;;6.85;;
7605;SDS011;3844;53.360;9.738;2022-12-18T11:10:25;13.48;;;6.47;;
7605;SDS011;3844;53.360;9.738;2022-12-18T11:12:34;16.25;;;7.45;;
7605;SDS011;3844;53.360;9.738;2022-12-18T11:16:47;12.68;;;5.85;;
7605;SDS011;3844;53.360;9.738;2022-12-18T11:18:50;15.15;;;6.28;;
7605;SDS011;3844;53.360;9.738;2022-12-18T11:20:55;14.13;;;6.22;;
7605;SDS011;3844;53.360;9.738;2022-12-18T11:23:03;15.63;;;5.93;;
7605;SDS011;3844;53.360;9.738;2022-12-18T11:27:16;15.63;;;6.18;;
7605;SDS011;3844;53.360;9.738;2022-12-18T11:29:22;13.32;;;6.13;;
7605;SDS011;3844;53.360;9.738;2022-12-18T11:31:28;14.23;;;5.93;;
7605;SDS011;3844;53.360;9.738;2022-12-18T11:33:32;12.35;;;5.75;;
7605;SDS011;3844;53.360;9.738;2022-12-18T11:35:42;14.65;;;5.88;;
7605;SDS011;3844;53.360;9.738;2022-12-18T11:38:12;14.20;;;6.28;;
7605;SDS011;3844;53.360;9.738;2022-12-18T11:40:19;12.85;;;5.80;;
7605;SDS011;3844;53.360;9.738;2022-12-18T11:42:27;12.50;;;5.70;;
7605;SDS011;3844;53.360;9.738;2022-12-18T11:49:38;13.63;;;5.88;;
7605;SDS011;3844;53.360;9.738;2022-12-18T11:51:47;14.60;;;5.80;;
7605;SDS011;3844;53.360;9.738;2022-12-18T11:53:51;13.85;;;5.32;;
7605;SDS011;3844;53.360;9.738;2022-12-18T12:00:20;12.18;;;5.40;;
7605;SDS011;3844;53.360;9.738;2022-12-18T12:08:17;12.65;;;4.88;;
7605;SDS011;3844;53.360;9.738;2022-12-18T12:12:51;9.48;;;4.10;;
7605;SDS011;3844;53.360;9.738;2022-12-18T12:17:34;10.32;;;4.60;;
7605;SDS011;3844;53.360;9.738;2022-12-18T12:19:57;9.30;;;4.28;;
7605;SDS011;3844;53.360;9.738;2022-12-18T12:24:39;10.85;;;4.55;;
7605;SDS011;3844;53.360;9.738;2022-12-18T12:31:41;11.20;;;4.00;;
7605;SDS011;3844;53.360;9.738;2022-12-18T12:38:43;9.93;;;3.92;;
7605;SDS011;3844;53.360;9.738;2022-12-18T12:40:54;9.35;;;3.85;;
7605;SDS011;3844;53.360;9.738;2022-12-18T12:43:42;10.85;;;4.00;;
7605;SDS011;3844;53.360;9.738;2022-12-18T12:45:52;10.57;;;4.05;;
7605;SDS011;3844;53.360;9.738;2022-12-18T12:47:56;9.02;;;3.88;;
7605;SDS011;3844;53.360;9.738;2022-12-18T12:50:00;8.68;;;3.85;;
7605;SDS011;3844;53.360;9.738;2022-12-18T12:54:18;8.00;;;3.60;;
7605;SDS011;3844;53.360;9.738;2022-12-18T12:56:24;9.13;;;3.63;;
7605;SDS011;3844;53.360;9.738;2022-12-18T13:12:25;7.40;;;3.30;;
7605;SDS011;3844;53.360;9.738;2022-12-18T13:14:44;7.38;;;3.03;;
7605;SDS011;3844;53.360;9.738;2022-12-18T13:16:44;6.35;;;2.78;;
7605;SDS011;3844;53.360;9.738;2022-12-18T13:18:51;6.20;;;2.90;;
7605;SDS011;3844;53.360;9.738;2022-12-18T13:22:58;6.72;;;2.85;;
7605;SDS011;3844;53.360;9.738;2022-12-18T13:24:59;7.05;;;2.80;;
7605;SDS011;3844;53.360;9.738;2022-12-18T13:27:00;9.48;;;2.75;;
7605;SDS011;3844;53.360;9.738;2022-12-18T13:33:46;7.50;;;2.88;;
7605;SDS011;3844;53.360;9.738;2022-12-18T13:37:52;7.18;;;2.88;;
7605;SDS011;3844;53.360;9.738;2022-12-18T13:39:55;7.07;;;2.78;;
7605;SDS011;3844;53.360;9.738;2022-12-18T13:48:30;8.07;;;3.20;;
7605;SDS011;3844;53.360;9.738;2022-12-18T13:50:33;9.40;;;3.58;;
7605;SDS011;3844;53.360;9.738;2022-12-18T13:52:34;7.30;;;3.10;;
7605;SDS011;3844;53.360;9.738;2022-12-18T13:54:39;7.20;;;3.20;;
7605;SDS011;3844;53.360;9.738;2022-12-18T13:56:43;8.98;;;3.75;;
7605;SDS011;3844;53.360;9.738;2022-12-18T13:58:45;9.55;;;3.00;;
7605;SDS011;3844;53.360;9.738;2022-12-18T14:00:46;9.25;;;3.25;;
7605;SDS011;3844;53.360;9.738;2022-12-18T14:02:46;9.27;;;3.53;;
7605;SDS011;3844;53.360;9.738;2022-12-18T14:04:48;7.85;;;3.58;;
7605;SDS011;3844;53.360;9.738;2022-12-18T14:06:51;9.00;;;3.60;;
7605;SDS011;3844;53.360;9.738;2022-12-18T14:08:55;8.18;;;3.40;;
7605;SDS011;3844;53.360;9.738;2022-12-18T14:10:57;8.50;;;3.38;;
7605;SDS011;3844;53.360;9.738;2022-12-18T14:12:57;8.77;;;3.60;;
7605;SDS011;3844;53.360;9.738;2022-12-18T14:15:31;9.23;;;3.75;;
7605;SDS011;3844;53.360;9.738;2022-12-18T14:17:34;9.98;;;4.18;;
7605;SDS011;3844;53.360;9.738;2022-12-18T14:19:36;9.68;;;3.88;;
7605;SDS011;3844;53.360;9.738;2022-12-18T14:21:45;9.93;;;4.18;;
7605;SDS011;3844;53.360;9.738;2022-12-18T14:23:47;8.57;;;3.88;;